Latest Coastal Weather Observations for Cape Bruny AWS

IDT60701

Issued at 10:21 am EST Thursday 28 May 2015 (issued every 10 minutes, with the page automatically refreshed every 10 minutes)

About coastal observations | Map of coastal stations | Coastal observations for TAS | Marine services | Other Formats
Station Details ID: 094198 Name: CAPE BRUNY (CAPE BRUNY) Lat: -43.49 Lon: 147.14 Height: 59.7 m
Data from the previous 72 hours. | See also: Recent months at Cape Bruny AWS
Date/Time
EST
Temp

°C
Wind Pressure Rain
since 9am
mm
Weather Cloud Vis
km
Sea
Height
m
Swell
Dir
 
Speed
knots
Gust
knots
hPa Trend Height
m
Period
s
Dir
28/10:00am 13.4 NNW 9 13 1007.0 - 0.0 - - - - - - -
28/09:30am 13.7 NNW 10 16 1007.2 - 0.0 - - - - - - -
28/09:00am 13.5 NW 13 21 1007.2 - 0.2 - - - - - - -
28/08:30am 13.1 NW 13 19 1007.2 - 0.2 - - - - - - -
28/08:00am 13.3 NW 19 27 1007.2 - 0.2 - - - - - - -
28/07:30am 13.1 NW 15 21 1007.3 - 0.2 - - - - - - -
28/07:00am 12.9 NW 15 23 1007.3 - 0.2 - - - - - - -
28/06:30am 12.4 NNW 12 17 1007.4 - 0.2 - - - - - - -
28/06:00am 12.1 NNW 10 14 1007.5 - 0.2 - - - - - - -
28/05:30am 11.9 NNW 10 14 1007.5 - 0.2 - - - - - - -
28/05:00am 12.2 NNW 10 13 1007.8 - 0.2 - - - - - - -
28/04:30am 12.5 N 9 15 1008.1 - 0.2 - - - - - - -
28/04:00am 12.5 NNW 9 12 1008.3 - 0.2 - - - - - - -
28/03:30am 12.9 NNW 9 12 1008.6 - 0.2 - - - - - - -
28/03:00am 12.7 NNW 8 11 1008.8 - 0.2 - - - - - - -
28/02:30am 12.6 N 5 8 1009.1 - 0.2 - - - - - - -
28/02:00am 12.7 NNW 8 12 1009.2 - 0.2 - - - - - - -
28/01:30am 12.6 NNW 7 11 1009.4 - 0.2 - - - - - - -
28/01:00am 12.9 NW 10 14 1009.8 - 0.2 - - - - - - -
28/12:30am 12.9 NW 12 18 1010.2 - 0.2 - - - - - - -
28/12:00am 11.2 N 6 9 1010.4 - 0.2 - - - - - - -
 
Date/Time
EST
Temp

°C
Wind Pressure Rain
since 9am
mm
Weather Cloud Vis
km
Sea
Height
m
Swell
Dir
 
Speed
knots
Gust
knots
hPa Trend Height
m
Period
s
Dir
27/11:30pm 11.4 NW 3 7 1010.5 - 0.2 - - - - - - -
27/11:00pm 11.8 W 8 11 1010.7 - 0.2 - - - - - - -
27/10:30pm 12.7 NNW 10 13 1010.6 - 0.0 - - - - - - -
27/10:00pm 13.3 N 9 12 1010.4 - 0.0 - - - - - - -
27/09:30pm 13.6 N 8 13 1010.1 - 0.0 - - - - - - -
27/09:00pm 13.3 N 7 11 1010.0 - 0.0 - - - - - - -
27/08:30pm 12.6 NNE 7 11 1010.0 - 0.0 - - - - - - -
27/08:00pm 12.9 NNE 10 14 1010.1 - 0.0 - - - - - - -
27/07:30pm 12.4 N 9 16 1010.1 - 0.0 - - - - - - -
27/07:00pm 11.9 N 6 9 1010.2 - 0.0 - - - - - - -
27/06:30pm 12.5 N 7 9 1010.3 - 0.0 - - - - - - -
27/06:00pm 12.9 N 9 13 1010.5 - 0.0 - - - - - - -
27/05:30pm 13.0 N 7 11 1010.7 - 0.0 - - - - - - -
27/05:00pm 13.0 NNE 7 10 1010.8 - 0.0 - - - - - - -
27/04:30pm 13.5 NNE 5 8 1010.9 - 0.0 - - - - - - -
27/04:00pm 14.3 N 5 8 1011.3 - 0.0 - - - - - - -
27/03:30pm 14.3 N 6 9 1011.5 - 0.0 - - - - - - -
27/03:00pm 13.3 N 6 9 1011.7 - 0.0 - - - - - - -
27/02:30pm 13.2 N 7 13 1011.7 - 0.0 - - - - - - -
27/02:00pm 13.9 N 9 15 1012.0 - 0.0 - - - - - - -
27/01:30pm 13.0 NNE 8 12 1012.3 - 0.0 - - - - - - -
27/01:00pm 13.0 N 8 13 1012.9 - 0.0 - - - - - - -
27/12:30pm 12.6 NNE 9 15 1013.1 - 0.0 - - - - - - -
27/12:00pm 12.6 NNE 9 15 1013.7 - 0.0 - - - - - - -
27/11:30am 11.4 NNE 11 17 1014.1 - 0.0 - - - - - - -
27/11:00am 10.7 NNE 10 15 1014.7 - 0.0 - - - - - - -
27/10:30am 9.4 NNE 9 14 1015.3 - 0.0 - - - - - - -
27/10:00am 9.1 NNE 8 13 1015.7 - 0.0 - - - - - - -
27/09:30am 8.8 NNE 10 14 1016.0 - 0.0 - - - - - - -
27/09:00am 8.0 NNE 9 14 1016.4 - 0.2 - - - - - - -
27/08:30am 8.3 NNE 10 15 1016.5 - 0.2 - - - - - - -
27/08:00am 7.9 NNE 10 13 1016.6 - 0.2 - - - - - - -
27/07:30am 7.6 N 11 15 1016.6 - 0.2 - - - - - - -
27/07:00am 7.4 N 11 15 1016.9 - 0.2 - - - - - - -
27/06:30am 7.4 N 11 15 1017.3 - 0.2 - - - - - - -
27/06:00am 7.4 N 12 16 1017.8 - 0.2 - - - - - - -
27/05:30am 7.5 N 13 16 1017.8 - 0.2 - - - - - - -
27/05:00am 7.3 N 11 15 1018.2 - 0.2 - - - - - - -
27/04:30am 7.7 NNE 11 15 1018.7 - 0.2 - - - - - - -
27/04:00am 7.4 N 11 13 1019.0 - 0.0 - - - - - - -
27/03:30am 7.3 N 12 15 1019.4 - 0.0 - - - - - - -
27/03:00am 7.5 NNE 11 14 1020.0 - 0.0 - - - - - - -
27/02:30am 7.8 NNE 11 14 1020.6 - 0.0 - - - - - - -
27/02:00am 7.8 NNE 12 15 1020.9 - 0.0 - - - - - - -
27/01:30am 8.0 NNE 11 13 1021.2 - 0.0 - - - - - - -
27/01:00am 8.2 N 11 14 1021.2 - 0.0 - - - - - - -
27/12:30am 8.2 NNE 10 13 1021.6 - 0.0 - - - - - - -
27/12:00am 8.2 NNE 10 13 1022.1 - 0.0 - - - - - - -
 
Date/Time
EST
Temp

°C
Wind Pressure Rain
since 9am
mm
Weather Cloud Vis
km
Sea
Height
m
Swell
Dir
 
Speed
knots
Gust
knots
hPa Trend Height
m
Period
s
Dir
26/11:30pm 8.3 N 10 12 1022.5 - 0.0 - - - - - - -
26/11:00pm 8.4 N 10 13 1022.7 - 0.0 - - - - - - -
26/10:30pm 8.7 N 9 11 1023.0 - 0.0 - - - - - - -
26/10:00pm 8.8 N 9 12 1023.5 - 0.0 - - - - - - -
26/09:30pm 8.8 N 8 10 1023.7 - 0.0 - - - - - - -
26/09:00pm 9.0 NNE 7 9 1023.7 - 0.0 - - - - - - -
26/08:30pm 9.3 NNE 8 10 1023.9 - 0.0 - - - - - - -
26/08:00pm 8.6 N 6 6 1024.1 - 0.0 - - - - - - -
26/07:30pm 9.1 NNE 5 6 1024.4 - 0.0 - - - - - - -
26/07:00pm 9.3 NNE 3 4 1024.4 - 0.0 - - - - - - -
26/06:30pm 9.9 NNE 6 6 1024.5 - 0.0 - - - - - - -
26/06:00pm 10.5 CALM 0 0 1024.5 - 0.0 - - - - - - -
26/05:30pm 10.5 SE 1 5 1024.5 - 0.0 - - - - - - -
26/05:00pm 10.8 CALM 0 3 1024.4 - 0.0 - - - - - - -
26/04:30pm 10.9 S 4 6 1024.5 - 0.0 - - - - - - -
26/04:00pm 11.9 SW 6 9 1024.6 - 0.0 - - - - - - -
26/03:30pm 12.4 SW 7 11 1024.7 - 0.0 - - - - - - -
26/03:00pm 12.7 SW 8 13 1024.6 - 0.0 - - - - - - -
26/02:30pm 13.1 SW 9 15 1024.6 - 0.0 - - - - - - -
26/02:00pm 13.2 SW 9 13 1024.7 - 0.0 - - - - - - -
26/01:30pm 12.7 SW 10 13 1024.9 - 0.0 - - - - - - -
26/01:00pm 13.5 SW 9 13 1025.2 - 0.0 - - - - - - -
26/12:30pm 13.5 SW 9 12 1025.4 - 0.0 - - - - - - -
26/12:00pm 12.2 SW 6 9 1025.6 - 0.0 - - - - - - -
26/11:30am 13.1 WNW 4 7 1026.0 - 0.0 - - - - - - -
26/11:00am 13.3 WNW 3 4 1026.4 - 0.0 - - - - - - -
26/10:30am 13.0 NW 3 5 1026.5 - 0.0 - - - - - - -
26/10:00am 12.0 NW 3 4 1026.5 - 0.0 - - - - - - -
26/09:30am 12.4 NW 5 7 1026.4 - 0.0 - - - - - - -
26/09:00am 11.6 WNW 7 9 1026.5 - 9.6 - - - - - - -
26/08:30am 11.1 W 11 16 1026.4 - 9.6 - - - - - - -
26/08:00am 10.7 WSW 11 15 1026.1 - 9.6 - - - - - - -
26/07:30am 10.8 WSW 14 17 1025.9 - 9.6 - - - - - - -
26/07:00am 10.8 WSW 15 20 1025.8 - 9.6 - - - - - - -
26/06:30am 10.9 WSW 16 19 1025.4 - 9.6 - - - - - - -
26/06:00am 10.8 WSW 15 20 1025.3 - 9.6 - - - - - - -
26/05:30am 10.6 WSW 14 18 1025.1 - 9.6 - - - - - - -
26/05:00am 10.7 WSW 12 19 1025.0 - 9.6 - - - - - - -
26/04:30am 10.9 WSW 15 19 1024.9 - 9.6 - - - - - - -
26/04:00am 10.7 WSW 18 24 1024.8 - 9.6 - - - - - - -
26/03:30am 10.4 WSW 15 19 1024.8 - 9.4 - - - - - - -
26/03:00am 10.7 WSW 16 22 1025.0 - 9.4 - - - - - - -
26/02:30am 10.8 WSW 12 16 1025.2 - 9.4 - - - - - - -
26/02:00am 10.9 W 10 14 1025.2 - 9.4 - - - - - - -
26/01:30am 11.0 WSW 12 17 1025.0 - 9.2 - - - - - - -
26/01:00am 11.3 W 8 10 1024.9 - 5.8 - - - - - - -
26/12:30am 11.3 WSW 11 14 1024.9 - 3.8 - - - - - - -
26/12:00am 11.5 SW 10 15 1024.7 - 2.0 Rain - - - - - -
 
Date/Time
EST
Temp

°C
Wind Pressure Rain
since 9am
mm
Weather Cloud Vis
km
Sea
Height
m
Swell
Dir
 
Speed
knots
Gust
knots
hPa Trend Height
m
Period
s
Dir
25/11:30pm 11.8 SW 6 8 1024.7 - 0.6 - - - - - - -
25/11:00pm 11.6 WNW 4 7 1024.4 - 0.2 - - - - - - -
25/10:30pm 11.7 NW 10 13 1024.4 - 0.2 - - - - - - -
25/10:00pm 12.7 NNW 10 13 1024.5 - 0.0 - - - - - - -
25/09:30pm 12.2 NNW 11 15 1024.4 - 0.0 - - - - - - -
25/09:00pm 12.7 NNW 10 15 1024.2 - 0.0 - - - - - - -
25/08:30pm 12.5 NNW 10 14 1024.3 - 0.0 - - - - - - -
25/08:00pm 11.9 NNW 9 12 1024.4 - 0.0 - - - - - - -
25/07:30pm 11.4 N 10 13 1024.5 - 0.0 - - - - - - -
25/07:00pm 11.5 N 10 14 1024.6 - 0.0 - - - - - - -
25/06:30pm 11.5 N 9 12 1024.6 - 0.0 - - - - - - -
25/06:00pm 11.4 N 7 11 1024.8 - 0.0 - - - - - - -
25/05:30pm 11.6 N 9 12 1024.7 - 0.0 - - - - - - -
25/05:00pm 10.9 N 10 13 1024.6 - 0.0 - - - - - - -
25/04:30pm 11.0 N 10 13 1024.7 - 0.0 - - - - - - -
25/04:00pm 11.3 N 8 11 1024.7 - 0.0 - - - - - - -
25/03:30pm 12.3 N 6 9 1024.9 - 0.0 - - - - - - -
25/03:00pm 13.2 N 6 8 1025.0 - 0.0 - - - - - - -
25/02:30pm 13.6 N 6 8 1025.1 - 0.0 - - - - - - -
25/02:00pm 12.8 N 7 10 1025.2 - 0.0 - - - - - - -
25/01:30pm 12.0 N 9 11 1025.6 - 0.0 - - - - - - -
25/01:00pm 13.3 NNE 8 11 1025.8 - 0.0 - - - - - - -
25/12:30pm 13.6 NNE 7 9 1026.1 - 0.0 - - - - - - -
25/12:00pm 11.7 NNE 9 11 1026.5 - 0.0 - - - - - - -
25/11:30am 11.4 N 8 10 1026.9 - 0.0 - - - - - - -
25/11:00am 11.1 N 8 11 1027.4 - 0.0 - - - - - - -
25/10:30am 11.0 N 8 11 1027.6 - 0.0 - - - - - - -

Other Formats:

Comma delimited format used in spreadsheet applications
http://www.bom.gov.au/fwo/IDT60701/IDT60701.95967.axf

JavaScript Object Notation format (JSON) in row-major order
http://www.bom.gov.au/fwo/IDT60701/IDT60701.95967.json